createdAt,value
2022-12-08T00:01:16.850Z,56.43
2022-12-08T00:03:44.434Z,56.26
2022-12-08T00:06:48.936Z,56.36
2022-12-08T00:09:22.194Z,56.23
2022-12-08T00:11:50.213Z,56.43
2022-12-08T00:14:17.241Z,56.29
2022-12-08T00:16:44.566Z,56.33
2022-12-08T00:19:11.674Z,56.31
2022-12-08T00:21:38.696Z,56.43
2022-12-08T00:24:06.057Z,56.31
2022-12-08T00:26:33.101Z,56.30
2022-12-08T00:29:01.258Z,56.36
2022-12-08T00:31:28.471Z,56.24
2022-12-08T00:33:55.527Z,56.33
2022-12-08T00:36:22.620Z,56.32
2022-12-08T00:38:49.668Z,56.31
2022-12-08T00:41:45.085Z,56.20
2022-12-08T00:44:16.122Z,56.20
2022-12-08T00:46:43.445Z,56.30
2022-12-08T00:49:10.578Z,56.34
2022-12-08T00:51:38.110Z,56.42
2022-12-08T00:54:05.916Z,56.48
2022-12-08T00:56:33.234Z,56.37
2022-12-08T00:59:00.998Z,56.35
2022-12-08T01:01:28.376Z,56.19
2022-12-08T01:03:55.571Z,56.08
2022-12-08T01:06:22.690Z,56.13
2022-12-08T01:08:49.642Z,56.21
2022-12-08T01:11:19.941Z,56.01
2022-12-08T01:13:47.384Z,55.91
2022-12-08T01:16:27.071Z,55.89
2022-12-08T01:18:54.460Z,55.93
2022-12-08T01:21:22.228Z,55.90
2022-12-08T01:23:49.238Z,55.80
2022-12-08T01:26:18.541Z,55.76
2022-12-08T01:28:46.534Z,55.77
2022-12-08T01:31:17.661Z,55.79
2022-12-08T01:33:45.141Z,55.62
2022-12-08T01:36:23.816Z,55.52
2022-12-08T01:38:51.417Z,55.62
2022-12-08T01:41:21.538Z,55.62
2022-12-08T01:44:02.207Z,55.45
2022-12-08T01:46:31.592Z,55.47
2022-12-08T01:49:09.407Z,55.52
2022-12-08T01:51:42.814Z,55.52
2022-12-08T01:54:11.803Z,55.45
2022-12-08T01:56:54.206Z,55.56
2022-12-08T01:59:22.594Z,55.48
2022-12-08T02:01:51.900Z,55.38
2022-12-08T02:04:19.147Z,55.38
2022-12-08T02:06:49.157Z,55.51
2022-12-08T02:09:16.926Z,55.38
2022-12-08T02:11:43.860Z,55.38
2022-12-08T02:14:12.958Z,55.34
2022-12-08T02:16:40.970Z,55.34
2022-12-08T02:19:36.955Z,55.44
2022-12-08T02:22:18.243Z,55.36
2022-12-08T02:24:58.241Z,55.43
2022-12-08T02:27:35.783Z,55.38
2022-12-08T02:30:13.996Z,55.22
2022-12-08T02:32:55.787Z,55.35
2022-12-08T02:35:36.963Z,55.35
2022-12-08T02:38:15.896Z,55.28
2022-12-08T02:40:49.974Z,55.31
2022-12-08T02:43:50.850Z,55.36
2022-12-08T02:46:31.540Z,55.40
2022-12-08T02:49:00.440Z,55.30
2022-12-08T02:51:27.463Z,55.35
2022-12-08T02:53:55.260Z,55.37
2022-12-08T02:56:39.583Z,55.42
2022-12-08T02:59:36.100Z,55.38
2022-12-08T03:02:30.085Z,55.38
2022-12-08T03:05:26.840Z,55.29
2022-12-08T03:08:00.918Z,55.24
2022-12-08T03:10:41.025Z,55.16
2022-12-08T03:13:23.675Z,55.14
2022-12-08T03:15:53.011Z,55.16
2022-12-08T03:18:24.989Z,54.94
2022-12-08T03:20:52.467Z,55.06
2022-12-08T03:23:22.223Z,55.02
2022-12-08T03:25:58.308Z,54.88
2022-12-08T03:28:25.978Z,54.85
2022-12-08T03:30:58.317Z,54.64
2022-12-08T03:33:30.652Z,54.78
2022-12-08T03:36:00.021Z,54.80
2022-12-08T03:38:27.060Z,54.73
2022-12-08T03:41:12.948Z,54.72
2022-12-08T03:43:39.999Z,54.75
2022-12-08T03:46:06.997Z,54.69
2022-12-08T03:48:33.966Z,54.52
2022-12-08T03:51:00.945Z,54.65
2022-12-08T03:53:27.880Z,54.75
2022-12-08T03:55:55.031Z,54.72
2022-12-08T03:58:21.988Z,54.76
2022-12-08T04:00:49.023Z,54.78
2022-12-08T04:03:16.170Z,54.87
2022-12-08T04:05:43.528Z,54.81
2022-12-08T04:08:10.561Z,54.97
2022-12-08T04:10:37.698Z,54.75
2022-12-08T04:13:04.593Z,54.79
2022-12-08T04:15:31.620Z,54.82
2022-12-08T04:17:58.674Z,54.86
2022-12-08T04:20:25.576Z,54.69
2022-12-08T04:22:52.564Z,54.83
2022-12-08T04:25:19.811Z,54.75
2022-12-08T04:27:46.802Z,54.80
2022-12-08T04:30:14.013Z,54.78
2022-12-08T04:32:45.886Z,54.81
2022-12-08T04:35:14.495Z,54.79
2022-12-08T04:37:41.983Z,54.86
2022-12-08T04:40:09.333Z,54.93
2022-12-08T04:42:36.791Z,54.87
2022-12-08T04:45:04.706Z,54.81
2022-12-08T04:47:31.639Z,54.84
2022-12-08T04:49:58.595Z,54.89
2022-12-08T04:52:25.581Z,54.74
2022-12-08T04:54:52.589Z,54.79
2022-12-08T04:57:19.806Z,54.76
2022-12-08T04:59:46.882Z,54.62
2022-12-08T05:02:14.057Z,54.63
2022-12-08T05:04:41.179Z,54.54
2022-12-08T05:07:08.228Z,54.51
2022-12-08T05:09:35.252Z,54.48
2022-12-08T05:12:02.332Z,54.40
2022-12-08T05:14:29.268Z,54.38
2022-12-08T05:16:56.334Z,54.31
2022-12-08T05:19:23.574Z,54.33
2022-12-08T05:21:50.514Z,54.26
2022-12-08T05:24:17.568Z,54.23
2022-12-08T05:26:44.612Z,54.36
2022-12-08T05:29:11.656Z,54.46
2022-12-08T05:31:38.769Z,54.45
2022-12-08T05:34:05.972Z,54.44
2022-12-08T05:36:33.210Z,54.43
2022-12-08T05:39:00.441Z,54.38
2022-12-08T05:41:27.420Z,54.46
2022-12-08T05:43:54.458Z,54.49
2022-12-08T05:46:21.560Z,54.36
2022-12-08T05:48:48.659Z,54.46
2022-12-08T05:51:21.537Z,54.47
2022-12-08T05:53:50.029Z,54.43
2022-12-08T05:56:18.222Z,54.43
2022-12-08T05:58:45.766Z,54.37
2022-12-08T06:01:27.856Z,54.50
2022-12-08T06:03:55.755Z,54.55
2022-12-08T06:06:22.694Z,54.61
2022-12-08T06:08:49.923Z,54.67
2022-12-08T06:11:21.785Z,54.60
2022-12-08T06:13:49.670Z,54.59
2022-12-08T06:16:17.725Z,54.42
2022-12-08T06:18:45.625Z,54.44
2022-12-08T06:21:14.583Z,54.39
2022-12-08T06:23:42.440Z,54.46
2022-12-08T06:26:12.155Z,54.31
2022-12-08T06:28:40.225Z,54.26
2022-12-08T06:31:22.003Z,54.25
2022-12-08T06:33:49.783Z,54.32
2022-12-08T06:36:19.688Z,54.33
2022-12-08T06:38:46.947Z,54.24
2022-12-08T06:41:15.917Z,54.27
2022-12-08T06:43:43.825Z,54.20
2022-12-08T06:46:15.012Z,54.25
2022-12-08T06:48:42.522Z,54.20
2022-12-08T06:51:11.609Z,54.24
2022-12-08T06:53:39.450Z,54.29
2022-12-08T06:56:07.210Z,54.47
2022-12-08T06:58:35.661Z,54.40
2022-12-08T07:01:13.453Z,54.38
2022-12-08T07:03:41.996Z,54.32
2022-12-08T07:06:14.171Z,54.43
2022-12-08T07:08:41.142Z,54.20
2022-12-08T07:11:16.552Z,54.20
2022-12-08T07:13:46.732Z,54.28
2022-12-08T07:16:13.970Z,54.21
2022-12-08T07:18:42.728Z,54.09
2022-12-08T07:21:11.738Z,54.05
2022-12-08T07:23:38.915Z,54.04
2022-12-08T07:26:08.516Z,53.94
2022-12-08T07:28:38.056Z,53.97
2022-12-08T07:31:06.943Z,54.09
2022-12-08T07:33:35.258Z,53.91
2022-12-08T07:36:05.398Z,53.96
2022-12-08T07:38:32.587Z,53.77
2022-12-08T07:40:59.876Z,54.03
2022-12-08T07:43:27.236Z,53.90
2022-12-08T07:45:54.353Z,53.88
2022-12-08T07:48:21.387Z,53.96
2022-12-08T07:50:48.487Z,54.10
2022-12-08T07:53:15.627Z,54.08
2022-12-08T07:55:43.800Z,54.04
2022-12-08T07:58:11.626Z,54.01
2022-12-08T08:00:39.002Z,54.04
2022-12-08T08:03:06.532Z,53.91
2022-12-08T08:05:33.530Z,54.25
2022-12-08T08:08:00.628Z,54.21
2022-12-08T08:10:27.816Z,54.19
2022-12-08T08:12:55.086Z,54.33
2022-12-08T08:15:22.310Z,54.27
2022-12-08T08:17:53.681Z,54.35
2022-12-08T08:20:21.451Z,54.31
2022-12-08T08:22:49.903Z,54.34
2022-12-08T08:25:18.206Z,54.38
2022-12-08T08:27:45.971Z,54.43
2022-12-08T08:30:20.097Z,54.34
2022-12-08T08:32:48.273Z,54.42
2022-12-08T08:35:15.495Z,54.53
2022-12-08T08:37:48.364Z,54.49
2022-12-08T08:40:16.723Z,54.58
2022-12-08T08:42:43.723Z,54.66
2022-12-08T08:45:11.488Z,54.68
2022-12-08T08:47:38.470Z,54.62
2022-12-08T08:50:06.330Z,54.79
2022-12-08T08:52:33.508Z,54.81
2022-12-08T08:55:00.515Z,54.89
2022-12-08T08:57:27.593Z,54.88
2022-12-08T08:59:54.687Z,55.17
2022-12-08T09:02:22.013Z,55.13
2022-12-08T09:04:49.250Z,55.21
2022-12-08T09:07:17.023Z,55.23
2022-12-08T09:09:44.092Z,55.27
2022-12-08T09:12:11.549Z,55.21
2022-12-08T09:14:38.850Z,55.25
2022-12-08T09:17:11.561Z,55.18
2022-12-08T09:19:38.555Z,55.11
2022-12-08T09:22:06.240Z,55.18
2022-12-08T09:24:33.185Z,55.10
2022-12-08T09:27:00.394Z,55.18
2022-12-08T09:29:32.555Z,54.97
2022-12-08T09:32:02.555Z,54.99
2022-12-08T09:34:29.747Z,54.92
2022-12-08T09:36:56.797Z,54.99
2022-12-08T09:39:23.981Z,54.91
2022-12-08T09:41:58.784Z,54.79
2022-12-08T09:44:54.935Z,54.84
2022-12-08T09:47:33.729Z,54.81
2022-12-08T09:50:14.363Z,54.92
2022-12-08T09:52:45.813Z,54.98
2022-12-08T09:55:21.294Z,54.97
2022-12-08T09:57:58.072Z,55.13
2022-12-08T10:00:25.357Z,55.13
2022-12-08T10:02:52.583Z,55.03
2022-12-08T10:05:19.849Z,55.09
2022-12-08T10:08:08.573Z,55.29
2022-12-08T10:10:43.195Z,55.41
2022-12-08T10:13:33.488Z,55.59
2022-12-08T10:16:29.540Z,55.73
2022-12-08T10:19:22.022Z,55.87
2022-12-08T10:21:50.422Z,55.97
2022-12-08T10:24:32.857Z,55.93
2022-12-08T10:27:01.648Z,56.31
2022-12-08T10:29:29.542Z,56.27
2022-12-08T10:31:59.918Z,56.27
2022-12-08T10:34:27.115Z,56.48
2022-12-08T10:36:56.902Z,56.49
2022-12-08T10:39:37.708Z,56.44
2022-12-08T10:42:09.535Z,56.41
2022-12-08T10:45:08.777Z,56.26
2022-12-08T10:47:42.492Z,56.21
2022-12-08T10:50:35.153Z,56.10
2022-12-08T10:53:02.078Z,56.03
2022-12-08T10:55:39.456Z,56.03
2022-12-08T10:58:06.501Z,55.96
2022-12-08T11:00:34.721Z,56.01
2022-12-08T11:03:05.683Z,56.04
2022-12-08T11:05:35.900Z,55.89
2022-12-08T11:08:05.080Z,55.73
2022-12-08T11:10:42.991Z,55.73
2022-12-08T11:13:26.414Z,55.82
2022-12-08T11:15:57.390Z,55.63
2022-12-08T11:18:45.028Z,55.57
2022-12-08T11:21:15.802Z,55.71
2022-12-08T11:23:47.945Z,55.43
2022-12-08T11:26:32.628Z,55.57
2022-12-08T11:28:59.717Z,55.52
2022-12-08T11:31:34.824Z,55.57
2022-12-08T11:34:03.423Z,55.43
2022-12-08T11:36:35.536Z,55.47
2022-12-08T11:39:07.783Z,55.29
2022-12-08T11:41:41.678Z,55.18
2022-12-08T11:44:08.564Z,55.19
2022-12-08T11:46:50.277Z,55.18
2022-12-08T11:49:18.293Z,55.23
2022-12-08T11:51:54.245Z,55.17
2022-12-08T11:54:31.128Z,55.25
2022-12-08T11:57:00.938Z,55.11
2022-12-08T11:59:39.741Z,55.23
2022-12-08T12:02:15.116Z,55.18
2022-12-08T12:04:45.979Z,55.28
2022-12-08T12:07:26.208Z,55.33
2022-12-08T12:10:03.737Z,55.16
2022-12-08T12:12:48.743Z,55.13
2022-12-08T12:15:58.590Z,55.05
2022-12-08T12:19:00.710Z,55.15
2022-12-08T12:21:31.723Z,55.15
2022-12-08T12:24:27.535Z,55.18
2022-12-08T12:27:16.420Z,55.06
2022-12-08T12:29:55.772Z,55.20
2022-12-08T12:32:24.938Z,55.15
2022-12-08T12:35:00.400Z,55.06
2022-12-08T12:37:42.928Z,54.99
2022-12-08T12:40:22.719Z,55.09
2022-12-08T12:42:55.776Z,55.08
2022-12-08T12:45:27.777Z,54.93
2022-12-08T12:48:00.593Z,55.13
2022-12-08T12:50:33.889Z,55.03
2022-12-08T12:53:10.596Z,55.03
2022-12-08T12:55:56.344Z,54.98
2022-12-08T12:58:30.033Z,54.78
2022-12-08T13:01:15.434Z,54.94
2022-12-08T13:03:50.053Z,55.03
2022-12-08T13:06:33.871Z,55.10
2022-12-08T13:09:01.107Z,55.10
2022-12-08T13:11:28.287Z,54.98
2022-12-08T13:14:01.640Z,55.12
2022-12-08T13:16:33.548Z,55.07
2022-12-08T13:19:04.320Z,55.43
2022-12-08T13:21:37.964Z,55.68
2022-12-08T13:24:13.733Z,55.55
2022-12-08T13:27:10.963Z,55.73
2022-12-08T13:29:39.279Z,56.06
2022-12-08T13:32:09.901Z,55.76
2022-12-08T13:34:46.070Z,55.72
2022-12-08T13:37:16.324Z,55.72
2022-12-08T13:39:59.198Z,55.55
2022-12-08T13:42:50.617Z,55.48
2022-12-08T13:46:31.904Z,55.47
2022-12-08T13:49:09.603Z,55.61
2022-12-08T13:57:12.189Z,55.66
2022-12-08T13:59:44.894Z,55.62
2022-12-08T14:02:29.009Z,55.49
2022-12-08T14:07:45.087Z,55.41
2022-12-08T14:10:32.347Z,55.52
2022-12-08T14:13:07.012Z,55.55
2022-12-08T14:15:38.429Z,55.62
2022-12-08T14:18:07.195Z,55.39
2022-12-08T14:20:57.659Z,55.43
2022-12-08T14:23:22.652Z,55.53
2022-12-08T14:25:49.854Z,55.50
2022-12-08T14:28:17.042Z,55.49
2022-12-08T14:30:44.483Z,55.24
2022-12-08T14:33:17.028Z,55.40
2022-12-08T14:35:51.586Z,55.29
2022-12-08T14:38:20.972Z,55.42
2022-12-08T14:40:50.191Z,55.46
2022-12-08T14:43:26.344Z,55.42
2022-12-08T14:46:20.857Z,55.28
2022-12-08T14:48:48.123Z,55.51
2022-12-08T14:51:21.476Z,55.54
2022-12-08T14:54:12.306Z,55.42
2022-12-08T14:56:52.328Z,55.35
2022-12-08T14:59:35.440Z,55.49
2022-12-08T15:02:14.606Z,55.39
2022-12-08T15:04:47.808Z,55.30
2022-12-08T15:07:16.305Z,55.27
2022-12-08T15:09:50.325Z,55.25
2022-12-08T15:12:27.165Z,55.21
2022-12-08T15:15:22.477Z,55.10
2022-12-08T15:17:51.941Z,55.18
2022-12-08T15:20:41.003Z,55.23
2022-12-08T15:23:21.506Z,55.12
2022-12-08T15:25:49.411Z,55.02
2022-12-08T15:28:21.264Z,55.15
2022-12-08T15:30:51.065Z,55.16
2022-12-08T15:33:18.229Z,55.16
2022-12-08T15:35:45.441Z,55.09
2022-12-08T15:38:27.246Z,55.18
2022-12-08T15:40:55.568Z,55.09
2022-12-08T15:43:22.856Z,55.12
2022-12-08T15:45:59.172Z,55.13
2022-12-08T15:48:29.072Z,55.14
2022-12-08T15:50:56.843Z,54.90
2022-12-08T15:53:23.895Z,54.93
2022-12-08T15:56:19.078Z,54.95
2022-12-08T15:58:53.606Z,55.02
2022-12-08T16:01:22.068Z,54.91
2022-12-08T16:09:39.606Z,55.08
2022-12-08T16:13:06.958Z,54.95
2022-12-08T16:15:50.154Z,55.08
2022-12-08T16:18:14.122Z,55.26
2022-12-08T16:21:07.482Z,55.37
2022-12-08T16:23:42.217Z,55.23
2022-12-08T16:29:16.703Z,55.34
2022-12-08T16:31:43.704Z,55.21
2022-12-08T16:34:10.971Z,55.28
2022-12-08T16:36:39.194Z,55.22
2022-12-08T16:39:06.618Z,55.02
2022-12-08T16:41:52.278Z,55.24
2022-12-08T16:44:20.037Z,55.16
2022-12-08T16:46:51.888Z,55.09
2022-12-08T16:49:22.413Z,55.23
2022-12-08T16:51:49.327Z,55.23
2022-12-08T16:54:16.316Z,55.36
2022-12-08T16:56:43.217Z,55.10
2022-12-08T16:59:10.315Z,55.11
2022-12-08T17:01:37.513Z,55.06
2022-12-08T17:06:54.107Z,55.13
2022-12-08T17:09:21.161Z,54.86
2022-12-08T17:11:48.152Z,54.86
2022-12-08T17:14:15.639Z,54.89
2022-12-08T17:16:43.478Z,54.88
2022-12-08T17:19:13.563Z,55.08
2022-12-08T17:21:40.643Z,55.05
2022-12-08T17:24:07.895Z,55.22
2022-12-08T17:26:35.566Z,55.13
2022-12-08T17:29:04.071Z,55.00
2022-12-08T17:31:32.760Z,54.91
2022-12-08T17:34:02.112Z,54.96
2022-12-08T17:36:29.353Z,54.85
2022-12-08T17:38:58.625Z,54.86
2022-12-08T17:41:25.565Z,54.74
2022-12-08T17:43:52.511Z,54.85
2022-12-08T17:46:21.110Z,54.76
2022-12-08T17:48:48.208Z,54.78
2022-12-08T17:51:15.506Z,54.76
2022-12-08T17:53:43.039Z,54.79
2022-12-08T17:56:20.231Z,54.65
2022-12-08T17:58:54.051Z,54.62
2022-12-08T18:01:22.466Z,54.64
2022-12-08T18:03:49.920Z,54.69
2022-12-08T18:06:17.906Z,54.68
2022-12-08T18:08:45.525Z,54.69
2022-12-08T18:11:21.001Z,54.87
2022-12-08T18:13:51.627Z,54.94
2022-12-08T18:16:21.103Z,54.98
2022-12-08T18:18:48.548Z,54.87
2022-12-08T18:21:21.558Z,54.88
2022-12-08T18:23:50.840Z,54.90
2022-12-08T18:26:18.022Z,54.89
2022-12-08T18:28:45.043Z,54.86
2022-12-08T18:31:15.297Z,54.88
2022-12-08T18:33:44.471Z,54.88
2022-12-08T18:36:15.118Z,54.87
2022-12-08T18:38:42.438Z,54.85
2022-12-08T18:41:17.102Z,54.64
2022-12-08T18:43:44.312Z,54.77
2022-12-08T18:46:12.805Z,54.75
2022-12-08T18:48:42.587Z,54.73
2022-12-08T18:51:15.361Z,54.67
2022-12-08T18:53:42.894Z,54.79
2022-12-08T18:56:21.929Z,54.72
2022-12-08T18:58:49.017Z,54.64
2022-12-08T19:01:16.319Z,54.68
2022-12-08T19:03:58.499Z,54.52
2022-12-08T19:06:30.569Z,54.57
2022-12-08T19:08:57.980Z,54.45
2022-12-08T19:11:28.062Z,54.61
2022-12-08T19:13:55.848Z,54.40
2022-12-08T19:16:23.328Z,54.36
2022-12-08T19:18:50.501Z,54.38
2022-12-08T19:21:17.630Z,54.49
2022-12-08T19:23:44.736Z,54.46
2022-12-08T19:26:12.511Z,54.32
2022-12-08T19:28:41.204Z,54.32
2022-12-08T19:31:10.232Z,54.38
2022-12-08T19:33:38.392Z,54.49
2022-12-08T19:36:07.459Z,54.36
2022-12-08T19:38:54.426Z,54.64
2022-12-08T19:41:40.324Z,54.43
2022-12-08T19:44:29.588Z,54.45
2022-12-08T19:46:56.765Z,54.51
2022-12-08T19:49:23.878Z,54.44
2022-12-08T19:51:50.981Z,54.53
2022-12-08T19:54:19.539Z,54.78
2022-12-08T19:56:47.898Z,54.67
2022-12-08T19:59:16.633Z,54.92
2022-12-08T20:01:44.636Z,54.77
2022-12-08T20:04:15.497Z,54.69
2022-12-08T20:06:43.118Z,54.61
2022-12-08T20:09:10.664Z,54.74
2022-12-08T20:11:38.303Z,54.80
2022-12-08T20:14:05.812Z,54.73
2022-12-08T20:16:33.274Z,54.76
2022-12-08T20:19:00.499Z,54.83
2022-12-08T20:21:28.033Z,54.90
2022-12-08T20:23:55.093Z,54.76
2022-12-08T20:26:23.905Z,54.66
2022-12-08T20:28:51.597Z,54.58
2022-12-08T20:31:24.691Z,54.69
2022-12-08T20:33:52.481Z,54.73
2022-12-08T20:36:21.270Z,54.77
2022-12-08T20:38:50.324Z,54.73
2022-12-08T20:41:18.314Z,54.65
2022-12-08T20:43:47.169Z,54.74
2022-12-08T20:46:16.761Z,54.80
2022-12-08T20:48:44.944Z,54.75
2022-12-08T20:51:17.124Z,54.82
2022-12-08T20:53:44.405Z,54.90
2022-12-08T20:56:20.274Z,54.73
2022-12-08T20:58:48.370Z,54.79
2022-12-08T21:01:18.687Z,54.71
2022-12-08T21:03:46.996Z,54.70
2022-12-08T21:06:15.465Z,54.93
2022-12-08T21:08:43.075Z,54.81
2022-12-08T21:11:10.671Z,54.79
2022-12-08T21:13:39.076Z,54.83
2022-12-08T21:16:09.390Z,54.88
2022-12-08T21:18:39.677Z,54.83
2022-12-08T21:21:14.429Z,54.66
2022-12-08T21:23:42.730Z,54.60
2022-12-08T21:26:19.013Z,54.65
2022-12-08T21:28:46.658Z,54.71
2022-12-08T21:31:17.012Z,54.68
2022-12-08T21:33:45.196Z,54.71
2022-12-08T21:36:14.636Z,54.68
2022-12-08T21:38:42.973Z,54.71
2022-12-08T21:41:16.576Z,54.59
2022-12-08T21:43:43.766Z,54.55
2022-12-08T21:46:17.487Z,54.38
2022-12-08T21:48:44.962Z,54.33
2022-12-08T21:51:12.236Z,54.53
2022-12-08T21:53:39.309Z,54.42
2022-12-08T21:56:10.143Z,54.49
2022-12-08T21:58:39.857Z,54.51
2022-12-08T22:01:09.044Z,54.57
2022-12-08T22:03:38.333Z,54.43
2022-12-08T22:06:07.529Z,54.59
2022-12-08T22:08:34.867Z,54.59
2022-12-08T22:11:02.857Z,54.61
2022-12-08T22:13:30.337Z,54.70
2022-12-08T22:15:58.938Z,54.67
2022-12-08T22:18:26.294Z,54.72
2022-12-08T22:20:54.041Z,54.69
2022-12-08T22:23:22.104Z,54.60
2022-12-08T22:26:03.063Z,54.44
2022-12-08T22:28:35.472Z,54.50
2022-12-08T22:31:19.654Z,54.57
2022-12-08T22:33:48.887Z,54.65
2022-12-08T22:36:26.583Z,54.62
2022-12-08T22:38:55.273Z,54.61
2022-12-08T22:41:22.832Z,54.54
2022-12-08T22:43:50.904Z,54.69
2022-12-08T22:46:20.757Z,54.63
2022-12-08T22:48:48.688Z,54.50
2022-12-08T22:51:16.217Z,54.65
2022-12-08T22:53:45.022Z,54.68
2022-12-08T22:56:13.554Z,54.78
2022-12-08T22:58:41.900Z,54.80
2022-12-08T23:01:09.482Z,54.78
2022-12-08T23:03:36.498Z,54.81
2022-12-08T23:06:12.537Z,54.85
2022-12-08T23:08:40.687Z,54.96
2022-12-08T23:11:08.158Z,54.81
2022-12-08T23:13:35.244Z,54.80
2022-12-08T23:16:02.456Z,54.88
2022-12-08T23:18:29.648Z,54.91
2022-12-08T23:20:56.678Z,54.80
2022-12-08T23:23:23.912Z,54.84
2022-12-08T23:25:50.949Z,55.05
2022-12-08T23:28:18.146Z,55.12
2022-12-08T23:30:45.687Z,55.04
2022-12-08T23:33:13.361Z,55.22
2022-12-08T23:35:40.521Z,55.19
2022-12-08T23:38:07.614Z,55.15
2022-12-08T23:40:34.703Z,55.20
2022-12-08T23:43:01.747Z,55.20
2022-12-08T23:45:29.005Z,55.16
2022-12-08T23:47:56.142Z,55.24
2022-12-08T23:50:23.103Z,55.16
2022-12-08T23:52:50.055Z,55.23
2022-12-08T23:55:17.073Z,55.10
2022-12-08T23:57:44.194Z,55.12
